createdAt,value
2018-04-25T00:01:30.616Z,14.96
2018-04-25T00:03:58.259Z,14.66
2018-04-25T00:06:25.862Z,14.73
2018-04-25T00:08:53.522Z,14.58
2018-04-25T00:11:21.186Z,14.52
2018-04-25T00:13:48.828Z,14.43
2018-04-25T00:16:16.463Z,14.58
2018-04-25T00:18:44.881Z,14.48
2018-04-25T00:21:12.500Z,14.53
2018-04-25T00:23:40.143Z,14.23
2018-04-25T00:26:07.759Z,14.30
2018-04-25T00:28:35.407Z,14.33
2018-04-25T00:31:03.025Z,14.20
2018-04-25T00:33:30.706Z,14.12
2018-04-25T00:35:58.325Z,14.23
2018-04-25T00:38:25.961Z,13.54
2018-04-25T00:40:53.599Z,13.86
2018-04-25T00:43:21.249Z,13.28
2018-04-25T00:45:48.930Z,13.59
2018-04-25T00:48:16.556Z,13.53
2018-04-25T00:50:44.166Z,13.55
2018-04-25T00:53:11.811Z,13.49
2018-04-25T00:55:39.416Z,13.81
2018-04-25T00:58:07.070Z,13.65
2018-04-25T01:00:34.674Z,13.71
2018-04-25T01:03:02.332Z,13.33
2018-04-25T01:05:29.979Z,12.42
2018-04-25T01:07:57.627Z,12.94
2018-04-25T01:10:25.262Z,12.76
2018-04-25T01:12:52.914Z,12.38
2018-04-25T01:15:20.514Z,12.90
2018-04-25T01:17:48.191Z,12.90
2018-04-25T01:20:16.721Z,12.87
2018-04-25T01:22:44.443Z,13.10
2018-04-25T01:25:20.708Z,13.27
2018-04-25T01:27:54.251Z,13.13
2018-04-25T01:30:23.829Z,13.01
2018-04-25T01:32:51.520Z,13.21
2018-04-25T01:35:19.187Z,13.04
2018-04-25T01:37:51.663Z,12.94
2018-04-25T01:40:19.276Z,13.09
2018-04-25T01:42:48.840Z,12.69
2018-04-25T01:48:19.563Z,13.01
2018-04-25T01:50:47.266Z,13.18
2018-04-25T01:53:26.866Z,13.04
2018-04-25T01:56:06.511Z,13.14
2018-04-25T01:58:45.944Z,13.20
2018-04-25T02:01:20.015Z,13.15
2018-04-25T02:03:56.329Z,13.15
2018-04-25T02:06:23.935Z,13.16
2018-04-25T02:08:51.588Z,12.97
2018-04-25T02:11:19.228Z,13.05
2018-04-25T02:13:46.875Z,13.03
2018-04-25T02:16:14.474Z,12.88
2018-04-25T02:18:42.119Z,12.73
2018-04-25T02:21:09.725Z,12.83
2018-04-25T02:23:37.367Z,12.95
2018-04-25T02:26:04.973Z,12.54
2018-04-25T02:28:32.616Z,12.61
2018-04-25T02:31:00.219Z,12.62
2018-04-25T02:33:27.874Z,12.84
2018-04-25T02:35:55.466Z,12.75
2018-04-25T02:38:23.119Z,12.83
2018-04-25T02:40:50.730Z,12.75
2018-04-25T02:43:18.375Z,12.74
2018-04-25T02:45:45.976Z,12.66
2018-04-25T02:48:13.618Z,12.80
2018-04-25T02:50:41.213Z,12.77
2018-04-25T02:53:08.946Z,12.78
2018-04-25T02:55:36.551Z,12.83
2018-04-25T02:58:04.195Z,12.87
2018-04-25T03:00:31.843Z,12.67
2018-04-25T03:02:59.460Z,12.67
2018-04-25T03:05:27.125Z,12.63
2018-04-25T03:07:54.729Z,12.64
2018-04-25T03:10:22.367Z,12.68
2018-04-25T03:12:49.968Z,12.52
2018-04-25T03:15:17.606Z,12.61
2018-04-25T03:17:45.207Z,12.32
2018-04-25T03:20:12.855Z,12.10
2018-04-25T03:22:40.543Z,12.20
2018-04-25T03:25:08.140Z,12.13
2018-04-25T03:27:35.739Z,12.09
2018-04-25T03:30:03.383Z,12.37
2018-04-25T03:32:30.984Z,12.39
2018-04-25T03:34:58.636Z,12.24
2018-04-25T03:37:26.243Z,12.21
2018-04-25T03:39:53.879Z,12.36
2018-04-25T03:42:21.493Z,12.43
2018-04-25T03:44:49.131Z,12.44
2018-04-25T03:47:16.738Z,12.37
2018-04-25T03:49:44.390Z,12.51
2018-04-25T03:52:11.998Z,12.49
2018-04-25T03:54:39.638Z,12.53
2018-04-25T03:57:07.240Z,12.54
2018-04-25T03:59:34.879Z,12.52
2018-04-25T04:02:02.485Z,12.59
2018-04-25T04:04:30.128Z,12.42
2018-04-25T04:06:57.771Z,12.51
2018-04-25T04:09:25.424Z,12.47
2018-04-25T04:11:53.035Z,12.32
2018-04-25T04:14:20.679Z,12.47
2018-04-25T04:16:48.307Z,12.45
2018-04-25T04:19:15.960Z,12.48
2018-04-25T04:21:43.567Z,12.32
2018-04-25T04:24:11.215Z,12.33
2018-04-25T04:26:38.815Z,12.46
2018-04-25T04:29:06.462Z,12.58
2018-04-25T04:31:34.063Z,12.55
2018-04-25T04:34:01.711Z,12.32
2018-04-25T04:36:29.326Z,12.40
2018-04-25T04:38:56.988Z,12.51
2018-04-25T04:41:24.582Z,12.69
2018-04-25T04:43:52.223Z,12.65
2018-04-25T04:46:19.847Z,12.36
2018-04-25T04:48:47.487Z,12.59
2018-04-25T04:51:15.093Z,12.69
2018-04-25T04:53:42.743Z,12.73
2018-04-25T04:56:10.350Z,12.63
2018-04-25T04:58:37.998Z,12.74
2018-04-25T05:01:05.731Z,13.01
2018-04-25T05:03:33.291Z,13.14
2018-04-25T05:06:00.944Z,13.14
2018-04-25T05:08:28.682Z,13.14
2018-04-25T05:10:56.260Z,13.32
2018-04-25T05:13:23.905Z,12.93
2018-04-25T05:15:51.631Z,13.47
2018-04-25T05:18:19.240Z,13.35
2018-04-25T05:20:46.895Z,13.46
2018-04-25T05:23:14.499Z,13.50
2018-04-25T05:25:42.159Z,13.37
2018-04-25T05:28:09.779Z,13.09
2018-04-25T05:30:37.427Z,12.84
2018-04-25T05:33:05.031Z,13.10
2018-04-25T05:35:32.698Z,13.17
2018-04-25T05:38:00.298Z,13.29
2018-04-25T05:40:27.938Z,13.29
2018-04-25T05:42:55.555Z,13.23
2018-04-25T05:45:23.229Z,13.63
2018-04-25T05:47:50.860Z,13.61
2018-04-25T05:50:18.512Z,13.83
2018-04-25T05:52:46.154Z,13.85
2018-04-25T05:55:13.799Z,14.25
2018-04-25T05:57:41.419Z,14.66
2018-04-25T06:00:09.082Z,15.53
2018-04-25T06:02:36.745Z,16.19
2018-04-25T06:05:04.400Z,16.60
2018-04-25T06:07:32.011Z,17.07
2018-04-25T06:09:59.660Z,16.61
2018-04-25T06:12:27.389Z,17.01
2018-04-25T06:14:55.068Z,16.39
2018-04-25T06:17:22.691Z,16.62
2018-04-25T06:19:50.337Z,17.15
2018-04-25T06:22:17.958Z,17.63
2018-04-25T06:24:45.598Z,17.96
2018-04-25T06:27:13.208Z,18.40
2018-04-25T06:29:40.903Z,19.15
2018-04-25T06:32:08.551Z,19.39
2018-04-25T06:34:36.267Z,18.70
2018-04-25T06:37:03.931Z,18.40
2018-04-25T06:39:31.655Z,18.33
2018-04-25T06:41:59.249Z,18.17
2018-04-25T06:44:26.926Z,17.44
2018-04-25T06:46:54.531Z,17.67
2018-04-25T06:49:22.199Z,17.55
2018-04-25T06:51:49.806Z,17.79
2018-04-25T06:54:17.446Z,17.70
2018-04-25T06:56:45.064Z,17.57
2018-04-25T06:59:12.713Z,17.55
2018-04-25T07:01:40.315Z,17.40
2018-04-25T07:04:08.423Z,17.29
2018-04-25T07:06:36.027Z,17.12
2018-04-25T07:09:03.766Z,17.04
2018-04-25T07:11:31.478Z,17.00
2018-04-25T07:13:59.086Z,17.08
2018-04-25T07:16:26.737Z,17.07
2018-04-25T07:18:54.343Z,16.95
2018-04-25T07:21:21.992Z,17.09
2018-04-25T07:23:49.628Z,17.11
2018-04-25T07:26:17.288Z,17.23
2018-04-25T07:28:44.896Z,17.26
2018-04-25T07:31:12.557Z,17.33
2018-04-25T07:33:40.171Z,17.39
2018-04-25T07:36:07.818Z,17.10
2018-04-25T07:38:35.453Z,17.43
2018-04-25T07:41:03.106Z,17.08
2018-04-25T07:43:30.707Z,17.06
2018-04-25T07:45:58.372Z,16.84
2018-04-25T07:48:26.016Z,16.94
2018-04-25T07:50:53.689Z,16.95
2018-04-25T07:53:21.334Z,17.06
2018-04-25T07:55:48.982Z,17.04
2018-04-25T07:58:16.603Z,17.11
2018-04-25T08:00:44.245Z,17.05
2018-04-25T08:03:11.859Z,17.15
2018-04-25T08:05:39.518Z,17.27
2018-04-25T08:08:07.121Z,16.95
2018-04-25T08:10:34.784Z,16.99
2018-04-25T08:13:14.028Z,17.04
2018-04-25T08:15:53.296Z,17.01
2018-04-25T08:18:32.586Z,17.07
2018-04-25T08:24:02.083Z,17.21
2018-04-25T08:26:29.733Z,17.32
2018-04-25T08:28:57.347Z,18.32
2018-04-25T08:31:24.994Z,17.72
2018-04-25T08:33:52.595Z,17.77
2018-04-25T08:36:20.233Z,18.34
2018-04-25T08:38:47.846Z,18.24
2018-04-25T08:41:15.490Z,19.51
2018-04-25T08:43:43.090Z,19.85
2018-04-25T08:46:10.735Z,20.58
2018-04-25T08:48:38.332Z,21.77
2018-04-25T08:51:05.978Z,20.62
2018-04-25T08:53:33.590Z,19.88
2018-04-25T08:56:01.236Z,19.31
2018-04-25T08:58:28.841Z,19.21
2018-04-25T09:00:56.483Z,19.23
2018-04-25T09:03:24.110Z,18.99
2018-04-25T09:05:51.791Z,19.17
2018-04-25T09:08:19.381Z,18.91
2018-04-25T09:10:47.027Z,18.69
2018-04-25T09:13:14.670Z,18.50
2018-04-25T09:15:42.315Z,18.41
2018-04-25T09:18:09.918Z,18.64
2018-04-25T09:20:37.557Z,18.39
2018-04-25T09:23:05.198Z,18.93
2018-04-25T09:25:32.844Z,19.27
2018-04-25T09:28:00.456Z,19.76
2018-04-25T09:30:28.126Z,19.30
2018-04-25T09:32:55.894Z,19.50
2018-04-25T09:35:23.578Z,19.27
2018-04-25T09:37:51.179Z,19.22
2018-04-25T09:40:18.830Z,19.16
2018-04-25T09:42:46.436Z,19.21
2018-04-25T09:45:14.070Z,19.42
2018-04-25T09:47:41.667Z,19.39
2018-04-25T09:50:09.270Z,19.30
2018-04-25T09:52:36.915Z,18.73
2018-04-25T09:55:04.511Z,18.73
2018-04-25T09:57:32.231Z,18.76
2018-04-25T09:59:59.785Z,18.95
2018-04-25T10:02:33.440Z,18.73
2018-04-25T10:05:01.171Z,18.93
2018-04-25T10:07:28.818Z,19.17
2018-04-25T10:09:56.425Z,19.46
2018-04-25T10:12:24.064Z,19.39
2018-04-25T10:14:51.661Z,19.49
2018-04-25T10:17:19.325Z,18.88
2018-04-25T10:19:46.940Z,18.48
2018-04-25T10:22:14.591Z,18.36
2018-04-25T10:24:42.207Z,18.28
2018-04-25T10:27:09.852Z,18.23
2018-04-25T10:29:37.449Z,18.10
2018-04-25T10:32:05.171Z,18.08
2018-04-25T10:34:32.729Z,18.02
2018-04-25T10:37:00.378Z,18.02
2018-04-25T10:39:27.982Z,18.08
2018-04-25T10:41:55.664Z,18.29
2018-04-25T10:44:23.274Z,18.27
2018-04-25T10:46:50.932Z,18.32
2018-04-25T10:49:18.535Z,18.21
2018-04-25T10:51:46.182Z,18.11
2018-04-25T10:54:13.801Z,18.14
2018-04-25T10:56:41.446Z,18.12
2018-04-25T10:59:09.087Z,17.95
2018-04-25T11:01:36.770Z,18.07
2018-04-25T11:04:04.370Z,18.18
2018-04-25T11:06:32.050Z,18.21
2018-04-25T11:08:59.656Z,17.92
2018-04-25T11:11:27.387Z,17.85
2018-04-25T11:13:54.991Z,17.75
2018-04-25T11:16:22.631Z,17.83
2018-04-25T11:18:50.242Z,17.96
2018-04-25T11:21:17.886Z,18.07
2018-04-25T11:23:45.536Z,18.20
2018-04-25T11:26:13.215Z,18.42
2018-04-25T11:28:40.816Z,18.47
2018-04-25T11:31:08.463Z,18.32
2018-04-25T11:33:36.065Z,18.48
2018-04-25T11:36:03.715Z,18.40
2018-04-25T11:38:31.318Z,18.43
2018-04-25T11:40:58.987Z,18.70
2018-04-25T11:43:26.589Z,18.69
2018-04-25T11:45:54.223Z,18.85
2018-04-25T11:48:21.833Z,18.86
2018-04-25T11:50:49.441Z,18.85
2018-04-25T11:53:17.095Z,18.62
2018-04-25T11:55:44.702Z,18.69
2018-04-25T11:58:12.351Z,18.63
2018-04-25T12:00:39.951Z,18.62
2018-04-25T12:03:07.600Z,18.85
2018-04-25T12:05:35.202Z,19.19
2018-04-25T12:08:02.849Z,19.65
2018-04-25T12:10:30.450Z,19.67
2018-04-25T12:12:58.094Z,19.37
2018-04-25T12:15:25.698Z,19.60
2018-04-25T12:17:53.336Z,19.92
2018-04-25T12:20:20.943Z,20.48
2018-04-25T12:22:48.596Z,21.22
2018-04-25T12:25:16.207Z,21.66
2018-04-25T12:27:43.854Z,21.55
2018-04-25T12:30:11.466Z,21.99
2018-04-25T12:32:39.111Z,21.66
2018-04-25T12:35:06.720Z,21.46
2018-04-25T12:37:34.415Z,20.86
2018-04-25T12:40:02.027Z,20.89
2018-04-25T12:42:29.674Z,20.79
2018-04-25T12:44:57.310Z,20.51
2018-04-25T12:47:24.917Z,20.01
2018-04-25T12:49:52.566Z,19.78
2018-04-25T12:52:20.186Z,19.65
2018-04-25T12:54:47.831Z,19.78
2018-04-25T12:57:15.434Z,19.77
2018-04-25T12:59:43.086Z,19.97
2018-04-25T13:02:10.695Z,20.39
2018-04-25T13:04:38.344Z,21.01
2018-04-25T13:07:05.965Z,21.33
2018-04-25T13:09:33.668Z,21.65
2018-04-25T13:12:01.254Z,22.18
2018-04-25T13:14:28.899Z,21.83
2018-04-25T13:16:56.506Z,21.99
2018-04-25T13:19:24.142Z,22.05
2018-04-25T13:21:51.742Z,21.73
2018-04-25T13:24:19.399Z,21.48
2018-04-25T13:26:47.014Z,20.96
2018-04-25T13:29:14.711Z,21.05
2018-04-25T13:31:42.315Z,21.59
2018-04-25T13:34:09.959Z,22.26
2018-04-25T13:36:37.555Z,22.13
2018-04-25T13:39:05.272Z,21.86
2018-04-25T13:41:32.869Z,22.03
2018-04-25T13:44:00.523Z,21.59
2018-04-25T13:46:28.192Z,21.80
2018-04-25T13:48:55.802Z,21.99
2018-04-25T13:51:23.452Z,22.91
2018-04-25T13:53:51.055Z,21.86
2018-04-25T13:56:18.695Z,21.40
2018-04-25T13:58:46.294Z,21.53
2018-04-25T14:01:13.943Z,22.29
2018-04-25T14:03:41.548Z,21.45
2018-04-25T14:06:09.211Z,21.16
2018-04-25T14:08:36.815Z,20.75
2018-04-25T14:11:04.503Z,20.29
2018-04-25T14:13:32.154Z,20.40
2018-04-25T14:15:59.799Z,20.09
2018-04-25T14:18:27.399Z,20.05
2018-04-25T14:20:55.043Z,20.46
2018-04-25T14:23:22.655Z,20.50
2018-04-25T14:25:50.303Z,19.99
2018-04-25T14:28:17.903Z,20.09
2018-04-25T14:30:45.567Z,19.74
2018-04-25T14:33:13.184Z,19.49
2018-04-25T14:35:40.818Z,19.58
2018-04-25T14:38:08.478Z,19.67
2018-04-25T14:40:36.080Z,19.95
2018-04-25T14:43:04.319Z,19.97
2018-04-25T14:45:31.957Z,19.67
2018-04-25T14:47:59.604Z,19.76
2018-04-25T14:50:27.216Z,19.65
2018-04-25T14:52:54.884Z,19.38
2018-04-25T14:55:22.541Z,19.48
2018-04-25T14:57:50.186Z,19.54
2018-04-25T15:00:17.834Z,19.43
2018-04-25T15:02:45.477Z,19.27
2018-04-25T15:05:13.081Z,19.26
2018-04-25T15:07:40.727Z,19.14
2018-04-25T15:10:08.353Z,18.87
2018-04-25T15:12:36.001Z,18.76
2018-04-25T15:15:03.608Z,18.56
2018-04-25T15:17:31.255Z,18.50
2018-04-25T15:19:58.882Z,18.47
2018-04-25T15:22:26.556Z,18.56
2018-04-25T15:24:54.166Z,18.71
2018-04-25T15:27:21.811Z,19.45
2018-04-25T15:29:49.452Z,19.92
2018-04-25T15:32:17.102Z,19.75
2018-04-25T15:34:44.855Z,19.96
2018-04-25T15:37:12.511Z,19.34
2018-04-25T15:39:40.137Z,19.29
2018-04-25T15:42:07.779Z,19.54
2018-04-25T15:44:35.378Z,19.51
2018-04-25T15:47:03.058Z,19.49
2018-04-25T15:49:30.708Z,19.26
2018-04-25T15:51:58.348Z,19.28
2018-04-25T15:54:25.943Z,19.21
2018-04-25T15:56:53.593Z,19.34
2018-04-25T15:59:21.199Z,19.27
2018-04-25T16:01:48.851Z,19.37
2018-04-25T16:04:16.449Z,19.76
2018-04-25T16:06:44.091Z,19.85
2018-04-25T16:09:11.690Z,19.50
2018-04-25T16:11:39.330Z,19.54
2018-04-25T16:14:06.984Z,19.77
2018-04-25T16:16:34.596Z,19.63
2018-04-25T16:19:02.250Z,19.78
2018-04-25T16:21:29.850Z,19.59
2018-04-25T16:23:57.501Z,19.56
2018-04-25T16:26:25.102Z,19.61
2018-04-25T16:28:52.742Z,19.43
2018-04-25T16:31:20.422Z,19.41
2018-04-25T16:33:48.010Z,19.51
2018-04-25T16:36:15.638Z,19.46
2018-04-25T16:38:43.276Z,19.46
2018-04-25T16:41:10.913Z,19.57
2018-04-25T16:43:38.554Z,19.58
2018-04-25T16:46:06.159Z,19.21
2018-04-25T16:48:33.817Z,19.44
2018-04-25T16:51:01.420Z,19.27
2018-04-25T16:53:29.070Z,19.37
2018-04-25T16:55:56.672Z,19.21
2018-04-25T16:58:24.315Z,19.15
2018-04-25T17:00:51.940Z,18.82
2018-04-25T17:03:19.624Z,18.53
2018-04-25T17:05:47.230Z,18.67
2018-04-25T17:08:14.872Z,18.26
2018-04-25T17:10:42.478Z,18.35
2018-04-25T17:13:10.123Z,18.07
2018-04-25T17:15:37.727Z,17.98
2018-04-25T17:18:05.374Z,18.05
2018-04-25T17:20:32.976Z,18.13
2018-04-25T17:23:00.707Z,18.02
2018-04-25T17:25:28.294Z,18.09
2018-04-25T17:27:55.926Z,18.22
2018-04-25T17:30:23.529Z,17.89
2018-04-25T17:32:51.337Z,17.94
2018-04-25T17:35:18.934Z,17.80
2018-04-25T17:37:46.578Z,17.79
2018-04-25T17:40:14.356Z,17.71
2018-04-25T17:42:42.192Z,17.68
2018-04-25T17:45:09.835Z,17.71
2018-04-25T17:47:37.655Z,17.70
2018-04-25T17:50:05.810Z,17.61
2018-04-25T17:52:33.941Z,17.71
2018-04-25T17:55:02.068Z,17.81
2018-04-25T17:57:29.935Z,17.74
2018-04-25T17:59:57.645Z,17.70
2018-04-25T18:02:25.647Z,17.58
2018-04-25T18:04:53.714Z,17.49
2018-04-25T18:07:21.348Z,17.47
2018-04-25T18:09:48.991Z,17.44
2018-04-25T18:12:16.617Z,17.38
2018-04-25T18:14:44.260Z,17.49
2018-04-25T18:17:11.981Z,17.43
2018-04-25T18:19:39.574Z,17.43
2018-04-25T18:22:07.170Z,17.40
2018-04-25T18:24:34.810Z,17.29
2018-04-25T18:27:02.410Z,17.43
2018-04-25T18:29:30.067Z,17.46
2018-04-25T18:31:57.672Z,17.31
2018-04-25T18:34:25.332Z,17.43
2018-04-25T18:36:52.943Z,17.27
2018-04-25T18:39:20.623Z,17.10
2018-04-25T18:41:48.230Z,17.32
2018-04-25T18:44:15.878Z,17.29
2018-04-25T18:46:43.488Z,17.14
2018-04-25T18:49:11.140Z,17.17
2018-04-25T18:51:38.743Z,17.22
2018-04-25T18:54:06.387Z,17.27
2018-04-25T18:56:33.992Z,17.10
2018-04-25T18:59:01.704Z,17.10
2018-04-25T19:01:29.310Z,17.18
2018-04-25T19:03:56.958Z,17.24
2018-04-25T19:06:24.564Z,17.17
2018-04-25T19:08:52.212Z,17.20
2018-04-25T19:11:19.823Z,17.00
2018-04-25T19:13:47.467Z,16.92
2018-04-25T19:16:15.076Z,16.89
2018-04-25T19:18:42.734Z,16.62
2018-04-25T19:21:10.339Z,16.51
2018-04-25T19:23:37.982Z,16.50
2018-04-25T19:26:05.644Z,16.30
2018-04-25T19:28:33.298Z,16.38
2018-04-25T19:31:00.908Z,16.30
2018-04-25T19:33:28.579Z,16.39
2018-04-25T19:35:56.187Z,16.34
2018-04-25T19:38:23.830Z,16.33
2018-04-25T19:40:51.436Z,16.26
2018-04-25T19:43:19.087Z,16.10
2018-04-25T19:45:46.698Z,16.13
2018-04-25T19:48:14.342Z,16.05
2018-04-25T19:50:41.954Z,16.08
2018-04-25T19:53:09.598Z,15.89
2018-04-25T19:55:37.231Z,15.85
2018-04-25T19:58:04.887Z,15.94
2018-04-25T20:00:32.489Z,15.91
2018-04-25T20:03:00.166Z,15.95
2018-04-25T20:05:27.811Z,15.90
2018-04-25T20:07:55.426Z,15.85
2018-04-25T20:10:23.226Z,15.90
2018-04-25T20:12:50.831Z,15.88
2018-04-25T20:15:18.475Z,15.85
2018-04-25T20:17:46.080Z,15.86
2018-04-25T20:20:13.821Z,15.80
2018-04-25T20:22:41.374Z,15.45
2018-04-25T20:25:09.026Z,15.41
2018-04-25T20:27:36.631Z,15.48
2018-04-25T20:30:04.286Z,15.52
2018-04-25T20:32:31.889Z,15.48
2018-04-25T20:34:59.536Z,15.35
2018-04-25T20:37:27.162Z,15.37
2018-04-25T20:39:54.814Z,15.26
2018-04-25T20:42:22.419Z,15.14
2018-04-25T20:44:50.063Z,15.13
2018-04-25T20:47:17.675Z,15.01
2018-04-25T20:49:45.346Z,14.91
2018-04-25T20:52:12.959Z,14.89
2018-04-25T20:54:40.604Z,14.85
2018-04-25T20:57:08.212Z,14.66
2018-04-25T20:59:35.867Z,14.53
2018-04-25T21:02:03.471Z,14.49
2018-04-25T21:04:31.124Z,14.41
2018-04-25T21:06:58.733Z,14.44
2018-04-25T21:09:26.379Z,14.51
2018-04-25T21:11:53.980Z,14.54
2018-04-25T21:14:21.628Z,14.48
2018-04-25T21:16:49.234Z,14.52
2018-04-25T21:19:16.906Z,14.38
2018-04-25T21:21:44.515Z,14.31
2018-04-25T21:24:12.171Z,14.14
2018-04-25T21:26:39.780Z,14.05
2018-04-25T21:29:07.431Z,14.11
2018-04-25T21:31:35.031Z,13.88
2018-04-25T21:34:02.685Z,13.94
2018-04-25T21:36:30.295Z,13.96
2018-04-25T21:38:57.955Z,13.93
2018-04-25T21:41:25.574Z,13.92
2018-04-25T21:43:53.225Z,13.90
2018-04-25T21:46:20.847Z,13.84
2018-04-25T21:48:48.507Z,13.92
2018-04-25T21:51:16.176Z,13.96
2018-04-25T21:53:43.817Z,14.02
2018-04-25T21:56:11.427Z,13.80
2018-04-25T21:58:39.083Z,13.77
2018-04-25T22:01:06.703Z,13.80
2018-04-25T22:03:34.349Z,13.82
2018-04-25T22:06:01.950Z,13.88
2018-04-25T22:08:29.594Z,13.94
2018-04-25T22:10:57.245Z,14.01
2018-04-25T22:13:24.912Z,14.08
2018-04-25T22:15:52.588Z,14.14
2018-04-25T22:18:20.206Z,14.12
2018-04-25T22:20:47.854Z,14.05
2018-04-25T22:23:15.465Z,13.99
2018-04-25T22:25:43.114Z,13.73
2018-04-25T22:28:10.727Z,13.54
2018-04-25T22:30:38.380Z,13.52
2018-04-25T22:33:05.999Z,13.48
2018-04-25T22:35:33.669Z,13.60
2018-04-25T22:38:01.312Z,13.59
2018-04-25T22:40:28.995Z,13.50
2018-04-25T22:42:56.649Z,13.48
2018-04-25T22:45:24.307Z,13.59
2018-04-25T22:47:51.919Z,13.47
2018-04-25T22:50:19.567Z,13.38
2018-04-25T22:52:47.174Z,13.46
2018-04-25T22:55:14.833Z,13.34
2018-04-25T22:57:42.444Z,13.37
2018-04-25T23:00:10.215Z,13.16
2018-04-25T23:02:37.867Z,13.26
2018-04-25T23:05:05.511Z,13.22
2018-04-25T23:07:33.135Z,13.18
2018-04-25T23:10:00.804Z,13.01
2018-04-25T23:12:28.419Z,13.11
2018-04-25T23:14:56.064Z,13.11
2018-04-25T23:17:23.727Z,12.94
2018-04-25T23:19:51.412Z,12.98
2018-04-25T23:22:19.019Z,12.99
2018-04-25T23:24:46.685Z,12.98
2018-04-25T23:27:14.318Z,12.79
2018-04-25T23:29:41.967Z,12.99
2018-04-25T23:32:09.575Z,12.83
2018-04-25T23:34:37.222Z,12.75
2018-04-25T23:37:04.830Z,12.89
2018-04-25T23:39:32.506Z,12.88
2018-04-25T23:42:00.112Z,12.84
2018-04-25T23:44:27.764Z,12.79
2018-04-25T23:46:55.370Z,12.66
2018-04-25T23:49:23.014Z,12.65
2018-04-25T23:51:50.620Z,12.43
2018-04-25T23:54:18.271Z,12.43
2018-04-25T23:56:45.882Z,12.33
2018-04-25T23:59:13.524Z,12.20
